createdAt,value
2018-04-11T00:01:36.598Z,19.10
2018-04-11T00:04:04.806Z,19.30
2018-04-11T00:06:32.251Z,19.30
2018-04-11T00:08:59.719Z,19.00
2018-04-11T00:11:27.123Z,19.10
2018-04-11T00:13:54.566Z,19.20
2018-04-11T00:16:22.070Z,19.30
2018-04-11T00:18:49.512Z,18.90
2018-04-11T00:21:17.935Z,19.20
2018-04-11T00:23:45.395Z,19.20
2018-04-11T00:26:12.819Z,19.20
2018-04-11T00:28:41.029Z,19.30
2018-04-11T00:31:08.599Z,19.30
2018-04-11T00:33:36.055Z,19.00
2018-04-11T00:36:03.497Z,19.30
2018-04-11T00:38:30.947Z,19.30
2018-04-11T00:40:58.400Z,19.30
2018-04-11T00:43:25.835Z,19.50
2018-04-11T00:45:54.038Z,19.70
2018-04-11T00:48:21.464Z,19.70
2018-04-11T00:50:49.655Z,19.50
2018-04-11T00:53:27.021Z,19.50
2018-04-11T00:55:54.435Z,19.60
2018-04-11T00:58:21.875Z,19.70
2018-04-11T01:00:49.311Z,19.60
2018-04-11T01:03:16.759Z,19.80
2018-04-11T01:05:44.974Z,19.40
2018-04-11T01:08:12.406Z,19.40
2018-04-11T01:10:39.865Z,19.20
2018-04-11T01:13:07.320Z,19.20
2018-04-11T01:15:34.767Z,19.00
2018-04-11T01:18:02.979Z,19.40
2018-04-11T01:20:30.409Z,19.40
2018-04-11T01:22:57.855Z,19.30
2018-04-11T01:25:25.336Z,19.30
2018-04-11T01:27:52.775Z,19.10
2018-04-11T01:30:20.219Z,19.20
2018-04-11T01:32:48.423Z,19.10
2018-04-11T01:35:15.857Z,19.10
2018-04-11T01:37:44.055Z,19.40
2018-04-11T01:40:11.486Z,19.30
2018-04-11T01:42:39.736Z,19.20
2018-04-11T01:45:07.171Z,19.10
2018-04-11T01:47:34.603Z,19.20
2018-04-11T01:50:02.039Z,19.00
2018-04-11T01:52:30.251Z,18.90
2018-04-11T01:54:57.679Z,18.90
2018-04-11T01:57:25.298Z,18.70
2018-04-11T01:59:52.808Z,18.90
2018-04-11T02:02:20.237Z,18.70
2018-04-11T02:04:48.436Z,19.30
2018-04-11T02:07:15.878Z,19.30
2018-04-11T02:09:44.172Z,18.90
2018-04-11T02:12:11.504Z,18.90
2018-04-11T02:14:39.760Z,19.10
2018-04-11T02:17:07.228Z,19.00
2018-04-11T02:19:34.666Z,18.60
2018-04-11T02:22:02.095Z,18.50
2018-04-11T02:24:29.810Z,18.40
2018-04-11T02:26:57.287Z,18.40
2018-04-11T02:29:25.497Z,18.10
2018-04-11T02:31:52.923Z,18.10
2018-04-11T02:34:20.434Z,17.80
2018-04-11T02:36:47.890Z,17.90
2018-04-11T02:39:15.372Z,18.30
2018-04-11T02:41:42.817Z,18.50
2018-04-11T02:44:11.165Z,18.60
2018-04-11T02:46:38.629Z,18.50
2018-04-11T02:49:06.079Z,18.40
2018-04-11T02:51:33.518Z,18.30
2018-04-11T02:54:00.955Z,17.70
2018-04-11T02:56:29.166Z,18.20
2018-04-11T02:58:56.596Z,18.20
2018-04-11T03:01:24.795Z,18.00
2018-04-11T03:03:52.234Z,18.00
2018-04-11T03:06:19.666Z,17.80
2018-04-11T03:08:47.872Z,18.00
2018-04-11T03:11:15.309Z,18.00
2018-04-11T03:13:43.525Z,17.60
2018-04-11T03:16:11.523Z,17.60
2018-04-11T03:18:38.977Z,18.00
2018-04-11T03:21:06.419Z,18.10
2018-04-11T03:23:33.854Z,18.20
2018-04-11T03:26:01.279Z,18.40
2018-04-11T03:28:29.480Z,18.30
2018-04-11T03:30:56.908Z,18.30
2018-04-11T03:33:25.227Z,18.20
2018-04-11T03:35:52.643Z,18.20
2018-04-11T03:38:20.961Z,18.60
2018-04-11T03:40:48.407Z,18.50
2018-04-11T03:43:15.835Z,18.70
2018-04-11T03:45:44.052Z,18.60
2018-04-11T03:48:11.547Z,18.60
2018-04-11T03:50:39.096Z,18.60
2018-04-11T03:53:06.506Z,18.50
2018-04-11T03:55:34.757Z,18.60
2018-04-11T03:58:02.998Z,18.60
2018-04-11T04:00:30.440Z,18.60
2018-04-11T04:02:57.891Z,18.60
2018-04-11T04:05:25.314Z,18.50
2018-04-11T04:07:53.513Z,18.60
2018-04-11T04:10:20.981Z,18.60
2018-04-11T04:12:48.411Z,18.40
2018-04-11T04:15:28.401Z,18.50
2018-04-11T04:18:07.735Z,18.50
2018-04-11T04:20:36.979Z,18.50
2018-04-11T04:23:04.405Z,18.50
2018-04-11T04:25:31.843Z,18.60
2018-04-11T04:27:59.335Z,18.70
2018-04-11T04:30:26.771Z,18.90
2018-04-11T04:32:54.219Z,18.80
2018-04-11T04:35:21.653Z,18.90
2018-04-11T04:37:49.080Z,18.90
2018-04-11T04:40:17.299Z,19.00
2018-04-11T04:42:44.729Z,18.90
2018-04-11T04:45:12.929Z,19.10
2018-04-11T04:47:40.365Z,19.10
2018-04-11T04:50:08.586Z,19.10
2018-04-11T04:52:36.000Z,19.10
2018-04-11T04:55:03.449Z,19.10
2018-04-11T04:57:31.651Z,18.90
2018-04-11T04:59:59.084Z,18.90
2018-04-11T05:02:27.297Z,18.60
2018-04-11T05:04:54.737Z,18.60
2018-04-11T05:07:22.171Z,18.50
2018-04-11T05:09:50.400Z,18.50
2018-04-11T05:12:17.857Z,18.50
2018-04-11T05:14:45.295Z,18.30
2018-04-11T05:17:12.723Z,18.20
2018-04-11T05:19:40.926Z,18.60
2018-04-11T05:22:08.359Z,18.50
2018-04-11T05:24:35.791Z,18.80
2018-04-11T05:27:03.246Z,18.30
2018-04-11T05:29:30.673Z,18.00
2018-04-11T05:31:58.105Z,18.00
2018-04-11T05:34:25.597Z,18.10
2018-04-11T05:36:53.726Z,18.60
2018-04-11T05:39:21.155Z,18.60
2018-04-11T05:41:48.588Z,18.80
2018-04-11T05:44:16.029Z,18.90
2018-04-11T05:46:43.455Z,19.00
2018-04-11T05:49:11.811Z,19.10
2018-04-11T05:51:40.045Z,19.40
2018-04-11T05:54:07.478Z,19.30
2018-04-11T05:56:34.909Z,19.40
2018-04-11T05:59:03.112Z,19.30
2018-04-11T06:01:30.559Z,19.20
2018-04-11T06:03:57.982Z,19.30
2018-04-11T06:06:25.680Z,19.30
2018-04-11T06:08:53.112Z,19.20
2018-04-11T06:11:21.312Z,19.20
2018-04-11T06:13:48.740Z,19.10
2018-04-11T06:16:16.945Z,19.20
2018-04-11T06:18:44.388Z,19.20
2018-04-11T06:21:11.845Z,19.20
2018-04-11T06:23:40.358Z,19.30
2018-04-11T06:26:07.779Z,19.20
2018-04-11T06:28:35.977Z,19.50
2018-04-11T06:31:03.415Z,19.40
2018-04-11T06:33:31.608Z,19.50
2018-04-11T06:35:59.035Z,19.50
2018-04-11T06:38:27.232Z,19.50
2018-04-11T06:40:54.671Z,19.50
2018-04-11T06:43:22.870Z,19.30
2018-04-11T06:45:50.307Z,19.30
2018-04-11T06:48:18.510Z,19.50
2018-04-11T06:50:45.939Z,19.40
2018-04-11T06:53:14.136Z,19.60
2018-04-11T06:55:41.568Z,19.60
2018-04-11T06:58:11.541Z,19.80
2018-04-11T07:00:38.980Z,19.70
2018-04-11T07:03:06.419Z,19.80
2018-04-11T07:05:33.860Z,19.90
2018-04-11T07:08:02.080Z,20.20
2018-04-11T07:10:29.531Z,20.10
2018-04-11T07:12:56.973Z,20.20
2018-04-11T07:15:24.410Z,20.40
2018-04-11T07:17:52.618Z,20.50
2018-04-11T07:20:20.043Z,20.40
2018-04-11T07:22:48.264Z,20.50
2018-04-11T07:25:15.681Z,20.50
2018-04-11T07:27:43.117Z,20.70
2018-04-11T07:30:10.544Z,20.70
2018-04-11T07:32:37.982Z,20.80
2018-04-11T07:35:05.432Z,20.70
2018-04-11T07:37:32.871Z,20.60
2018-04-11T07:40:00.304Z,20.60
2018-04-11T07:42:28.518Z,21.00
2018-04-11T07:44:55.951Z,21.00
2018-04-11T07:47:24.155Z,20.80
2018-04-11T07:49:51.594Z,20.80
2018-04-11T07:52:19.037Z,20.80
2018-04-11T07:54:47.257Z,20.30
2018-04-11T07:57:14.708Z,20.30
2018-04-11T07:59:42.137Z,20.30
2018-04-11T08:02:09.599Z,20.20
2018-04-11T08:04:37.787Z,20.10
2018-04-11T08:07:05.220Z,20.10
2018-04-11T08:09:33.418Z,20.50
2018-04-11T08:12:00.850Z,20.50
2018-04-11T08:14:29.053Z,22.00
2018-04-11T08:16:56.491Z,22.00
2018-04-11T08:19:23.935Z,22.40
2018-04-11T08:21:52.137Z,22.50
2018-04-11T08:24:19.568Z,22.40
2018-04-11T08:26:47.036Z,22.40
2018-04-11T08:29:15.237Z,22.80
2018-04-11T08:31:42.753Z,22.80
2018-04-11T08:34:10.172Z,23.30
2018-04-11T08:36:37.618Z,23.70
2018-04-11T08:39:06.760Z,24.00
2018-04-11T08:41:34.175Z,24.60
2018-04-11T08:44:01.652Z,25.20
2018-04-11T08:46:29.096Z,24.90
2018-04-11T08:48:56.523Z,24.50
2018-04-11T08:51:23.955Z,24.30
2018-04-11T08:53:52.151Z,24.10
2018-04-11T08:56:19.588Z,24.10
2018-04-11T08:58:47.817Z,23.20
2018-04-11T09:01:15.237Z,23.20
2018-04-11T09:03:42.699Z,23.40
2018-04-11T09:06:11.192Z,23.60
2018-04-11T09:08:38.632Z,24.00
2018-04-11T09:11:06.070Z,24.30
2018-04-11T09:13:33.503Z,24.80
2018-04-11T09:16:00.941Z,24.70
2018-04-11T09:18:28.425Z,24.70
2018-04-11T09:20:56.676Z,24.60
2018-04-11T09:23:24.148Z,24.60
2018-04-11T09:25:52.358Z,23.80
2018-04-11T09:28:20.561Z,23.70
2018-04-11T09:30:48.029Z,23.70
2018-04-11T09:33:15.464Z,23.50
2018-04-11T09:35:43.676Z,25.10
2018-04-11T09:38:11.108Z,25.10
2018-04-11T09:40:38.559Z,26.80
2018-04-11T09:43:05.995Z,27.90
2018-04-11T09:45:34.190Z,28.00
2018-04-11T09:48:01.614Z,28.00
2018-04-11T09:50:29.063Z,27.90
2018-04-11T09:52:58.782Z,27.10
2018-04-11T09:55:26.203Z,26.30
2018-04-11T09:57:53.652Z,25.80
2018-04-11T10:00:21.140Z,25.20
2018-04-11T10:02:54.156Z,24.70
2018-04-11T10:05:22.444Z,24.10
2018-04-11T10:07:50.674Z,23.70
2018-04-11T10:10:18.867Z,23.20
2018-04-11T10:12:46.308Z,23.20
2018-04-11T10:15:13.739Z,23.10
2018-04-11T10:17:41.188Z,22.80
2018-04-11T10:20:08.613Z,22.70
2018-04-11T10:22:36.816Z,22.70
2018-04-11T10:25:04.263Z,22.70
2018-04-11T10:27:31.694Z,22.60
2018-04-11T10:29:59.115Z,22.60
2018-04-11T10:32:26.571Z,22.50
2018-04-11T10:34:54.023Z,22.60
2018-04-11T10:37:21.451Z,22.70
2018-04-11T10:39:48.940Z,23.10
2018-04-11T10:42:17.106Z,23.90
2018-04-11T10:44:44.557Z,23.80
2018-04-11T10:47:13.149Z,24.30
2018-04-11T10:49:40.589Z,24.30
2018-04-11T10:52:08.076Z,24.40
2018-04-11T10:54:35.525Z,24.50
2018-04-11T10:57:02.951Z,24.50
2018-04-11T10:59:30.383Z,24.00
2018-04-11T11:01:57.820Z,23.70
2018-04-11T11:04:25.280Z,23.70
2018-04-11T11:06:52.710Z,23.40
2018-04-11T11:09:20.146Z,23.20
2018-04-11T11:11:47.617Z,23.40
2018-04-11T11:14:15.065Z,23.40
2018-04-11T11:16:42.509Z,23.90
2018-04-11T11:19:10.712Z,25.50
2018-04-11T11:21:38.142Z,25.50
2018-04-11T11:24:05.594Z,26.10
2018-04-11T11:26:33.799Z,26.20
2018-04-11T11:29:01.235Z,26.20
2018-04-11T11:31:29.472Z,25.80
2018-04-11T11:33:58.411Z,25.80
2018-04-11T11:36:26.590Z,25.90
2018-04-11T11:38:54.041Z,26.40
2018-04-11T11:41:21.473Z,26.90
2018-04-11T11:43:48.932Z,26.90
2018-04-11T11:46:17.136Z,26.90
2018-04-11T11:48:44.632Z,26.90
2018-04-11T11:51:12.594Z,26.70
2018-04-11T11:53:40.037Z,26.30
2018-04-11T11:56:07.567Z,25.80
2018-04-11T11:58:35.768Z,25.20
2018-04-11T12:01:03.195Z,25.20
2018-04-11T12:03:31.406Z,25.20
2018-04-11T12:05:58.856Z,25.20
2018-04-11T12:08:26.307Z,25.60
2018-04-11T12:10:53.734Z,26.30
2018-04-11T12:13:21.931Z,26.90
2018-04-11T12:15:49.368Z,26.90
2018-04-11T12:18:17.564Z,26.80
2018-04-11T12:20:44.997Z,26.80
2018-04-11T12:23:13.812Z,26.30
2018-04-11T12:25:41.260Z,26.30
2018-04-11T12:28:09.447Z,26.70
2018-04-11T12:30:36.880Z,26.70
2018-04-11T12:33:05.096Z,26.80
2018-04-11T12:35:32.518Z,26.80
2018-04-11T12:38:00.723Z,26.30
2018-04-11T12:40:28.187Z,26.30
2018-04-11T12:42:55.652Z,25.90
2018-04-11T12:45:23.107Z,25.60
2018-04-11T12:47:50.533Z,25.60
2018-04-11T12:50:17.975Z,25.10
2018-04-11T12:52:46.166Z,24.70
2018-04-11T12:55:13.595Z,24.70
2018-04-11T12:57:41.033Z,24.60
2018-04-11T13:00:08.514Z,24.40
2018-04-11T13:02:36.704Z,23.70
2018-04-11T13:05:04.929Z,23.60
2018-04-11T13:07:32.340Z,23.50
2018-04-11T13:09:59.788Z,23.70
2018-04-11T13:12:28.183Z,23.50
2018-04-11T13:14:55.800Z,23.50
2018-04-11T13:17:23.244Z,23.60
2018-04-11T13:19:50.668Z,23.60
2018-04-11T13:22:20.435Z,23.70
2018-04-11T13:24:47.942Z,23.90
2018-04-11T13:27:16.871Z,23.60
2018-04-11T13:29:44.317Z,23.60
2018-04-11T13:32:11.755Z,23.50
2018-04-11T13:34:39.184Z,23.70
2018-04-11T13:37:07.453Z,23.40
2018-04-11T13:39:34.972Z,23.40
2018-04-11T13:42:02.427Z,23.60
2018-04-11T13:44:29.873Z,23.60
2018-04-11T13:46:57.314Z,23.20
2018-04-11T13:49:24.751Z,22.90
2018-04-11T13:51:52.192Z,22.60
2018-04-11T13:54:20.414Z,23.40
2018-04-11T13:56:47.868Z,23.30
2018-04-11T13:59:15.295Z,24.50
2018-04-11T14:01:43.500Z,25.00
2018-04-11T14:04:10.929Z,25.00
2018-04-11T14:06:39.170Z,24.70
2018-04-11T14:09:07.395Z,24.60
2018-04-11T14:11:34.835Z,24.50
2018-04-11T14:14:03.043Z,24.10
2018-04-11T14:16:30.478Z,24.10
2018-04-11T14:18:57.911Z,24.20
2018-04-11T14:21:26.116Z,24.50
2018-04-11T14:23:54.313Z,24.30
2018-04-11T14:26:21.761Z,24.20
2018-04-11T14:28:49.188Z,24.00
2018-04-11T14:31:17.396Z,23.90
2018-04-11T14:33:44.829Z,23.80
2018-04-11T14:36:13.966Z,23.90
2018-04-11T14:38:41.403Z,23.90
2018-04-11T14:41:08.903Z,24.00
2018-04-11T14:43:37.565Z,24.00
2018-04-11T14:46:05.011Z,23.80
2018-04-11T14:48:33.039Z,23.60
2018-04-11T14:51:01.236Z,23.50
2018-04-11T14:53:28.666Z,23.50
2018-04-11T14:55:56.303Z,23.40
2018-04-11T14:58:23.739Z,23.20
2018-04-11T15:00:51.198Z,23.10
2018-04-11T15:03:18.623Z,23.30
2018-04-11T15:05:46.064Z,23.40
2018-04-11T15:08:14.268Z,23.20
2018-04-11T15:10:41.736Z,23.20
2018-04-11T15:13:09.183Z,23.00
2018-04-11T15:15:36.636Z,23.10
2018-04-11T15:18:04.066Z,22.80
2018-04-11T15:20:32.271Z,23.00
2018-04-11T15:22:59.708Z,23.00
2018-04-11T15:25:27.916Z,22.90
2018-04-11T15:27:55.349Z,22.90
2018-04-11T15:30:23.577Z,22.60
2018-04-11T15:32:51.010Z,22.60
2018-04-11T15:35:18.447Z,22.70
2018-04-11T15:37:45.900Z,22.70
2018-04-11T15:40:13.342Z,22.80
2018-04-11T15:42:41.560Z,22.90
2018-04-11T15:45:09.020Z,22.90
2018-04-11T15:47:36.451Z,22.80
2018-04-11T15:50:03.880Z,22.70
2018-04-11T15:52:31.339Z,22.60
2018-04-11T15:54:58.771Z,22.50
2018-04-11T15:57:26.207Z,22.50
2018-04-11T15:59:54.411Z,22.50
2018-04-11T16:02:21.858Z,22.50
2018-04-11T16:04:49.376Z,22.60
2018-04-11T16:07:16.824Z,22.70
2018-04-11T16:09:45.007Z,22.70
2018-04-11T16:12:12.448Z,22.70
2018-04-11T16:14:40.639Z,22.80
2018-04-11T16:17:08.084Z,22.70
2018-04-11T16:19:36.280Z,22.70
2018-04-11T16:22:03.727Z,22.60
2018-04-11T16:24:31.166Z,22.70
2018-04-11T16:26:59.374Z,22.90
2018-04-11T16:29:26.826Z,22.90
2018-04-11T16:31:54.251Z,22.90
2018-04-11T16:34:22.466Z,23.00
2018-04-11T16:36:49.907Z,23.00
2018-04-11T16:39:17.335Z,23.00
2018-04-11T16:41:44.776Z,23.10
2018-04-11T16:44:12.202Z,22.90
2018-04-11T16:46:39.635Z,22.60
2018-04-11T16:49:07.771Z,22.20
2018-04-11T16:51:35.213Z,22.20
2018-04-11T16:54:02.643Z,22.20
2018-04-11T16:56:30.089Z,22.20
2018-04-11T16:58:57.544Z,22.30
2018-04-11T17:01:24.975Z,22.10
2018-04-11T17:03:53.175Z,21.60
2018-04-11T17:06:20.615Z,21.60
2018-04-11T17:08:48.815Z,21.50
2018-04-11T17:11:16.260Z,21.40
2018-04-11T17:13:43.684Z,21.60
2018-04-11T17:16:11.135Z,21.80
2018-04-11T17:18:38.575Z,21.90
2018-04-11T17:21:17.988Z,21.60
2018-04-11T17:27:06.095Z,21.60
2018-04-11T17:29:45.382Z,21.60
2018-04-11T17:32:12.851Z,21.60
2018-04-11T17:34:40.259Z,21.50
2018-04-11T17:37:09.439Z,21.60
2018-04-11T17:39:36.853Z,21.60
2018-04-11T17:42:17.462Z,21.20
2018-04-11T17:44:44.896Z,21.30
2018-04-11T17:47:12.364Z,21.40
2018-04-11T17:49:39.840Z,21.40
2018-04-11T17:52:07.283Z,21.30
2018-04-11T17:54:34.724Z,21.40
2018-04-11T17:57:02.147Z,21.40
2018-04-11T17:59:29.587Z,21.40
2018-04-11T18:01:57.833Z,21.20
2018-04-11T18:04:25.283Z,21.20
2018-04-11T18:06:52.732Z,21.20
2018-04-11T18:09:22.659Z,21.00
2018-04-11T18:11:50.299Z,21.00
2018-04-11T18:14:17.735Z,20.90
2018-04-11T18:16:45.225Z,20.80
2018-04-11T18:19:12.649Z,20.70
2018-04-11T18:21:40.850Z,20.40
2018-04-11T18:24:08.279Z,20.40
2018-04-11T18:26:35.703Z,20.20
2018-04-11T18:29:03.180Z,20.10
2018-04-11T18:31:31.364Z,19.80
2018-04-11T18:33:58.841Z,19.80
2018-04-11T18:36:26.508Z,19.70
2018-04-11T18:38:53.952Z,19.50
2018-04-11T18:41:21.386Z,19.40
2018-04-11T18:43:48.830Z,19.30
2018-04-11T18:46:16.279Z,19.30
2018-04-11T18:48:44.056Z,19.20
2018-04-11T18:51:11.503Z,19.10
2018-04-11T18:53:38.952Z,19.10
2018-04-11T18:56:06.390Z,19.00
2018-04-11T18:58:33.852Z,19.00
2018-04-11T19:01:01.279Z,19.00
2018-04-11T19:03:28.722Z,19.00
2018-04-11T19:05:56.917Z,19.00
2018-04-11T19:08:24.351Z,19.00
2018-04-11T19:10:51.789Z,19.00
2018-04-11T19:13:20.065Z,18.80
2018-04-11T19:15:47.432Z,18.70
2018-04-11T19:18:16.567Z,18.60
2018-04-11T19:20:44.056Z,18.60
2018-04-11T19:23:11.484Z,18.60
2018-04-11T19:25:38.942Z,18.60
2018-04-11T19:28:06.379Z,18.60
2018-04-11T19:30:33.812Z,18.40
2018-04-11T19:33:02.008Z,18.20
2018-04-11T19:35:29.435Z,18.20
2018-04-11T19:37:57.682Z,18.20
2018-04-11T19:40:25.093Z,18.10
2018-04-11T19:42:53.302Z,18.00
2018-04-11T19:45:20.759Z,18.00
2018-04-11T19:47:48.191Z,17.90
2018-04-11T19:50:16.106Z,17.70
2018-04-11T19:52:43.523Z,17.50
2018-04-11T19:55:10.967Z,17.60
2018-04-11T19:57:38.399Z,17.60
2018-04-11T20:00:05.848Z,17.50
2018-04-11T20:02:33.303Z,17.50
2018-04-11T20:05:00.760Z,17.50
2018-04-11T20:07:28.205Z,17.40
2018-04-11T20:09:55.654Z,17.40
2018-04-11T20:12:23.092Z,17.40
2018-04-11T20:14:50.589Z,17.40
2018-04-11T20:17:18.028Z,17.40
2018-04-11T20:19:45.479Z,17.40
2018-04-11T20:22:12.926Z,17.40
2018-04-11T20:24:40.347Z,17.30
2018-04-11T20:27:08.549Z,17.40
2018-04-11T20:29:35.983Z,17.40
2018-04-11T20:32:04.184Z,17.40
2018-04-11T20:34:31.644Z,17.40
2018-04-11T20:36:59.096Z,17.40
2018-04-11T20:39:26.512Z,17.40
2018-04-11T20:41:53.943Z,17.40
2018-04-11T20:44:21.388Z,17.40
2018-04-11T20:46:48.818Z,17.40
2018-04-11T20:49:16.265Z,17.50
2018-04-11T20:51:44.451Z,17.50
2018-04-11T20:54:11.899Z,17.50
2018-04-11T20:56:40.088Z,17.50
2018-04-11T20:59:07.762Z,17.50
2018-04-11T21:01:35.184Z,17.50
2018-04-11T21:04:03.382Z,17.50
2018-04-11T21:06:30.817Z,17.40
2018-04-11T21:09:09.208Z,17.50
2018-04-11T21:11:36.635Z,17.40
2018-04-11T21:14:04.101Z,17.40
2018-04-11T21:16:31.579Z,17.30
2018-04-11T21:18:59.005Z,17.30
2018-04-11T21:21:26.435Z,17.30
2018-04-11T21:23:53.867Z,17.30
2018-04-11T21:26:22.077Z,17.20
2018-04-11T21:28:49.507Z,17.20
2018-04-11T21:31:17.729Z,17.20
2018-04-11T21:33:45.167Z,17.20
2018-04-11T21:36:12.673Z,17.20
2018-04-11T21:38:40.136Z,17.20
2018-04-11T21:41:07.647Z,17.20
2018-04-11T21:43:35.075Z,17.20
2018-04-11T21:46:03.276Z,17.10
2018-04-11T21:48:30.698Z,17.00
2018-04-11T21:50:58.963Z,17.00
2018-04-11T21:53:26.355Z,17.00
2018-04-11T21:55:53.798Z,17.00
2018-04-11T21:58:21.232Z,16.90
2018-04-11T22:00:48.669Z,16.90
2018-04-11T22:03:16.363Z,16.90
2018-04-11T22:05:44.585Z,16.90
2018-04-11T22:08:12.008Z,16.80
2018-04-11T22:10:39.443Z,16.90
2018-04-11T22:13:06.873Z,16.80
2018-04-11T22:15:34.308Z,16.80
2018-04-11T22:18:01.740Z,16.80
2018-04-11T22:20:29.945Z,16.80
2018-04-11T22:22:57.371Z,16.70
2018-04-11T22:25:24.800Z,16.70
2018-04-11T22:27:52.230Z,16.60
2018-04-11T22:30:19.684Z,16.70
2018-04-11T22:32:47.107Z,16.60
2018-04-11T22:35:14.557Z,16.50
2018-04-11T22:37:42.769Z,16.60
2018-04-11T22:40:10.220Z,16.60
2018-04-11T22:42:37.666Z,16.50
2018-04-11T22:45:05.099Z,16.40
2018-04-11T22:47:33.298Z,16.40
2018-04-11T22:50:00.735Z,16.40
2018-04-11T22:52:28.931Z,16.40
2018-04-11T22:54:56.379Z,16.40
2018-04-11T22:57:23.808Z,16.40
2018-04-11T22:59:52.025Z,16.40
2018-04-11T23:02:19.466Z,16.40
2018-04-11T23:04:46.891Z,16.50
2018-04-11T23:07:14.332Z,16.50
2018-04-11T23:09:41.803Z,16.50
2018-04-11T23:12:09.256Z,16.50
2018-04-11T23:14:36.679Z,16.50
2018-04-11T23:17:04.124Z,16.50
2018-04-11T23:19:31.556Z,16.50
2018-04-11T23:21:59.758Z,16.40
2018-04-11T23:24:27.217Z,16.40
2018-04-11T23:26:54.665Z,16.50
2018-04-11T23:29:22.848Z,16.50
2018-04-11T23:31:50.302Z,16.50
2018-04-11T23:34:17.760Z,16.50
2018-04-11T23:36:45.189Z,16.50
2018-04-11T23:39:13.383Z,16.50
2018-04-11T23:41:40.830Z,16.50
2018-04-11T23:44:08.259Z,16.60
2018-04-11T23:46:35.701Z,16.60
2018-04-11T23:49:03.198Z,16.50
2018-04-11T23:51:31.401Z,16.50
2018-04-11T23:53:58.838Z,16.50
2018-04-11T23:56:26.510Z,16.50
2018-04-11T23:58:53.989Z,16.50
